sensor_id;sensor_type;location;lat;lon;timestamp;temperature;humidity
51029;DHT22;37054;52.054;8.600;2023-12-07T00:00:34;8.40;69.80
51029;DHT22;37054;52.054;8.600;2023-12-07T00:02:59;8.30;69.80
51029;DHT22;37054;52.054;8.600;2023-12-07T00:05:25;8.30;69.90
51029;DHT22;37054;52.054;8.600;2023-12-07T00:07:50;8.30;69.90
51029;DHT22;37054;52.054;8.600;2023-12-07T00:10:16;8.30;69.90
51029;DHT22;37054;52.054;8.600;2023-12-07T00:12:41;8.30;69.90
51029;DHT22;37054;52.054;8.600;2023-12-07T00:15:07;8.30;69.90
51029;DHT22;37054;52.054;8.600;2023-12-07T00:17:33;8.30;69.90
51029;DHT22;37054;52.054;8.600;2023-12-07T00:19:58;8.30;69.90
51029;DHT22;37054;52.054;8.600;2023-12-07T00:22:24;8.30;69.80
51029;DHT22;37054;52.054;8.600;2023-12-07T00:24:51;8.30;69.80
51029;DHT22;37054;52.054;8.600;2023-12-07T00:27:16;8.40;69.80
51029;DHT22;37054;52.054;8.600;2023-12-07T00:29:42;8.30;69.80
51029;DHT22;37054;52.054;8.600;2023-12-07T00:32:07;8.30;69.80
51029;DHT22;37054;52.054;8.600;2023-12-07T00:34:32;8.30;69.90
51029;DHT22;37054;52.054;8.600;2023-12-07T00:36:58;8.30;69.80
51029;DHT22;37054;52.054;8.600;2023-12-07T00:39:23;8.40;69.70
51029;DHT22;37054;52.054;8.600;2023-12-07T00:41:49;8.30;69.80
51029;DHT22;37054;52.054;8.600;2023-12-07T00:44:14;8.30;69.80
51029;DHT22;37054;52.054;8.600;2023-12-07T00:46:40;8.30;69.60
51029;DHT22;37054;52.054;8.600;2023-12-07T00:49:06;8.40;69.60
51029;DHT22;37054;52.054;8.600;2023-12-07T00:51:31;8.30;69.60
51029;DHT22;37054;52.054;8.600;2023-12-07T00:53:57;8.30;69.70
51029;DHT22;37054;52.054;8.600;2023-12-07T00:56:23;8.30;69.70
51029;DHT22;37054;52.054;8.600;2023-12-07T00:58:50;8.30;69.70
51029;DHT22;37054;52.054;8.600;2023-12-07T01:01:15;8.30;69.70
51029;DHT22;37054;52.054;8.600;2023-12-07T01:03:41;8.30;69.70
51029;DHT22;37054;52.054;8.600;2023-12-07T01:06:07;8.30;69.60
51029;DHT22;37054;52.054;8.600;2023-12-07T01:08:33;8.20;69.80
51029;DHT22;37054;52.054;8.600;2023-12-07T01:10:58;8.30;69.70
51029;DHT22;37054;52.054;8.600;2023-12-07T01:13:24;8.20;69.80
51029;DHT22;37054;52.054;8.600;2023-12-07T01:15:50;8.30;69.70
51029;DHT22;37054;52.054;8.600;2023-12-07T01:18:16;8.30;69.70
51029;DHT22;37054;52.054;8.600;2023-12-07T01:20:42;8.30;69.80
51029;DHT22;37054;52.054;8.600;2023-12-07T01:23:07;8.30;69.80
51029;DHT22;37054;52.054;8.600;2023-12-07T01:25:34;8.20;69.70
51029;DHT22;37054;52.054;8.600;2023-12-07T01:28:00;8.20;69.60
51029;DHT22;37054;52.054;8.600;2023-12-07T01:30:25;8.30;69.60
51029;DHT22;37054;52.054;8.600;2023-12-07T01:32:51;8.20;69.60
51029;DHT22;37054;52.054;8.600;2023-12-07T01:35:16;8.20;69.60
51029;DHT22;37054;52.054;8.600;2023-12-07T01:37:42;8.20;69.70
51029;DHT22;37054;52.054;8.600;2023-12-07T01:40:08;8.20;69.60
51029;DHT22;37054;52.054;8.600;2023-12-07T01:42:36;8.20;69.70
51029;DHT22;37054;52.054;8.600;2023-12-07T01:45:03;8.20;69.60
51029;DHT22;37054;52.054;8.600;2023-12-07T01:47:29;8.20;69.70
51029;DHT22;37054;52.054;8.600;2023-12-07T01:49:54;8.20;69.70
51029;DHT22;37054;52.054;8.600;2023-12-07T01:52:21;8.20;69.70
51029;DHT22;37054;52.054;8.600;2023-12-07T01:54:47;8.20;69.70
51029;DHT22;37054;52.054;8.600;2023-12-07T01:57:13;8.10;69.70
51029;DHT22;37054;52.054;8.600;2023-12-07T01:59:39;8.20;69.70
51029;DHT22;37054;52.054;8.600;2023-12-07T02:02:05;8.20;69.80
51029;DHT22;37054;52.054;8.600;2023-12-07T02:04:30;8.10;69.80
51029;DHT22;37054;52.054;8.600;2023-12-07T02:06:57;8.20;69.80
51029;DHT22;37054;52.054;8.600;2023-12-07T02:09:25;8.10;69.80
51029;DHT22;37054;52.054;8.600;2023-12-07T02:11:50;8.10;69.70
51029;DHT22;37054;52.054;8.600;2023-12-07T02:14:16;8.20;69.70
51029;DHT22;37054;52.054;8.600;2023-12-07T02:16:46;8.20;69.60
51029;DHT22;37054;52.054;8.600;2023-12-07T02:21:51;8.10;69.50
51029;DHT22;37054;52.054;8.600;2023-12-07T02:24:21;8.10;69.70
51029;DHT22;37054;52.054;8.600;2023-12-07T02:26:48;8.10;69.70
51029;DHT22;37054;52.054;8.600;2023-12-07T02:29:13;8.10;69.60
51029;DHT22;37054;52.054;8.600;2023-12-07T02:31:39;8.10;69.60
51029;DHT22;37054;52.054;8.600;2023-12-07T02:34:04;8.10;69.50
51029;DHT22;37054;52.054;8.600;2023-12-07T02:36:31;8.00;69.50
51029;DHT22;37054;52.054;8.600;2023-12-07T02:38:59;8.00;69.50
51029;DHT22;37054;52.054;8.600;2023-12-07T02:41:27;8.00;69.50
51029;DHT22;37054;52.054;8.600;2023-12-07T02:43:53;8.00;69.60
51029;DHT22;37054;52.054;8.600;2023-12-07T02:46:19;8.00;69.60
51029;DHT22;37054;52.054;8.600;2023-12-07T02:48:45;8.00;69.60
51029;DHT22;37054;52.054;8.600;2023-12-07T02:51:10;8.00;69.70
51029;DHT22;37054;52.054;8.600;2023-12-07T02:53:36;8.00;69.60
51029;DHT22;37054;52.054;8.600;2023-12-07T02:56:01;7.90;69.60
51029;DHT22;37054;52.054;8.600;2023-12-07T02:58:27;8.00;69.60
51029;DHT22;37054;52.054;8.600;2023-12-07T03:00:53;7.90;69.60
51029;DHT22;37054;52.054;8.600;2023-12-07T03:03:18;7.90;69.60
51029;DHT22;37054;52.054;8.600;2023-12-07T03:05:44;7.90;69.60
51029;DHT22;37054;52.054;8.600;2023-12-07T03:08:09;7.90;69.60
51029;DHT22;37054;52.054;8.600;2023-12-07T03:10:35;7.90;69.60
51029;DHT22;37054;52.054;8.600;2023-12-07T03:13:00;7.80;69.60
51029;DHT22;37054;52.054;8.600;2023-12-07T03:15:25;7.90;69.60
51029;DHT22;37054;52.054;8.600;2023-12-07T03:17:51;7.80;69.70
51029;DHT22;37054;52.054;8.600;2023-12-07T03:20:17;7.90;69.60
51029;DHT22;37054;52.054;8.600;2023-12-07T03:22:42;7.90;69.60
51029;DHT22;37054;52.054;8.600;2023-12-07T03:25:08;7.80;69.70
51029;DHT22;37054;52.054;8.600;2023-12-07T03:27:34;7.80;69.70
51029;DHT22;37054;52.054;8.600;2023-12-07T03:29:59;7.90;69.60
51029;DHT22;37054;52.054;8.600;2023-12-07T03:32:25;7.80;69.60
51029;DHT22;37054;52.054;8.600;2023-12-07T03:34:50;7.80;69.50
51029;DHT22;37054;52.054;8.600;2023-12-07T03:37:16;7.80;69.50
51029;DHT22;37054;52.054;8.600;2023-12-07T03:39:41;7.80;69.50
51029;DHT22;37054;52.054;8.600;2023-12-07T03:42:07;7.80;69.60
51029;DHT22;37054;52.054;8.600;2023-12-07T03:44:33;7.80;69.50
51029;DHT22;37054;52.054;8.600;2023-12-07T03:46:58;7.80;69.50
51029;DHT22;37054;52.054;8.600;2023-12-07T03:49:23;7.80;69.60
51029;DHT22;37054;52.054;8.600;2023-12-07T03:51:49;7.80;69.60
51029;DHT22;37054;52.054;8.600;2023-12-07T03:54:14;7.70;69.60
51029;DHT22;37054;52.054;8.600;2023-12-07T03:56:40;7.80;69.60
51029;DHT22;37054;52.054;8.600;2023-12-07T03:59:08;7.80;69.60
51029;DHT22;37054;52.054;8.600;2023-12-07T04:01:34;7.70;69.60
51029;DHT22;37054;52.054;8.600;2023-12-07T04:03:59;7.80;69.50
51029;DHT22;37054;52.054;8.600;2023-12-07T04:06:26;7.70;69.40
51029;DHT22;37054;52.054;8.600;2023-12-07T04:08:51;7.70;69.50
51029;DHT22;37054;52.054;8.600;2023-12-07T04:11:18;7.70;69.50
51029;DHT22;37054;52.054;8.600;2023-12-07T04:13:44;7.70;69.60
51029;DHT22;37054;52.054;8.600;2023-12-07T04:16:10;7.70;69.40
51029;DHT22;37054;52.054;8.600;2023-12-07T04:18:36;7.70;69.50
51029;DHT22;37054;52.054;8.600;2023-12-07T04:21:02;7.70;69.20
51029;DHT22;37054;52.054;8.600;2023-12-07T04:23:28;7.70;69.20
51029;DHT22;37054;52.054;8.600;2023-12-07T04:25:53;7.70;69.20
51029;DHT22;37054;52.054;8.600;2023-12-07T04:28:19;7.60;69.20
51029;DHT22;37054;52.054;8.600;2023-12-07T04:30:45;7.60;69.10
51029;DHT22;37054;52.054;8.600;2023-12-07T04:33:10;7.60;69.10
51029;DHT22;37054;52.054;8.600;2023-12-07T04:35:36;7.60;69.00
51029;DHT22;37054;52.054;8.600;2023-12-07T04:38:02;7.50;68.90
51029;DHT22;37054;52.054;8.600;2023-12-07T04:40:27;7.50;68.80
51029;DHT22;37054;52.054;8.600;2023-12-07T04:42:53;7.40;68.80
51029;DHT22;37054;52.054;8.600;2023-12-07T04:45:18;7.40;68.70
51029;DHT22;37054;52.054;8.600;2023-12-07T04:47:45;7.40;68.80
51029;DHT22;37054;52.054;8.600;2023-12-07T04:50:11;7.40;68.90
51029;DHT22;37054;52.054;8.600;2023-12-07T04:52:36;7.40;68.90
51029;DHT22;37054;52.054;8.600;2023-12-07T04:55:02;7.40;68.80
51029;DHT22;37054;52.054;8.600;2023-12-07T04:57:27;7.30;68.90
51029;DHT22;37054;52.054;8.600;2023-12-07T04:59:53;7.30;68.90
51029;DHT22;37054;52.054;8.600;2023-12-07T05:02:19;7.30;69.20
51029;DHT22;37054;52.054;8.600;2023-12-07T05:04:45;7.30;69.10
51029;DHT22;37054;52.054;8.600;2023-12-07T05:07:11;7.30;69.00
51029;DHT22;37054;52.054;8.600;2023-12-07T05:09:38;7.30;69.00
51029;DHT22;37054;52.054;8.600;2023-12-07T05:12:04;7.20;69.10
51029;DHT22;37054;52.054;8.600;2023-12-07T05:14:31;7.20;69.20
51029;DHT22;37054;52.054;8.600;2023-12-07T05:16:57;7.20;69.40
51029;DHT22;37054;52.054;8.600;2023-12-07T05:19:23;7.20;69.20
51029;DHT22;37054;52.054;8.600;2023-12-07T05:21:48;7.20;69.30
51029;DHT22;37054;52.054;8.600;2023-12-07T05:24:15;7.20;69.40
51029;DHT22;37054;52.054;8.600;2023-12-07T05:26:41;7.20;69.40
51029;DHT22;37054;52.054;8.600;2023-12-07T05:29:07;7.20;69.40
51029;DHT22;37054;52.054;8.600;2023-12-07T05:31:32;7.30;69.50
51029;DHT22;37054;52.054;8.600;2023-12-07T05:33:58;7.30;69.40
51029;DHT22;37054;52.054;8.600;2023-12-07T05:36:23;7.20;69.40
51029;DHT22;37054;52.054;8.600;2023-12-07T05:38:49;7.20;69.60
51029;DHT22;37054;52.054;8.600;2023-12-07T05:41:14;7.20;69.40
51029;DHT22;37054;52.054;8.600;2023-12-07T05:43:43;7.20;69.50
51029;DHT22;37054;52.054;8.600;2023-12-07T05:46:09;7.20;69.60
51029;DHT22;37054;52.054;8.600;2023-12-07T05:48:34;7.20;69.60
51029;DHT22;37054;52.054;8.600;2023-12-07T05:51:01;7.20;69.60
51029;DHT22;37054;52.054;8.600;2023-12-07T05:53:27;7.30;69.70
51029;DHT22;37054;52.054;8.600;2023-12-07T05:55:53;7.30;69.60
51029;DHT22;37054;52.054;8.600;2023-12-07T05:58:19;7.30;69.70
51029;DHT22;37054;52.054;8.600;2023-12-07T06:00:45;7.30;69.60
51029;DHT22;37054;52.054;8.600;2023-12-07T06:03:14;7.30;69.50
51029;DHT22;37054;52.054;8.600;2023-12-07T06:05:40;7.30;69.60
51029;DHT22;37054;52.054;8.600;2023-12-07T06:08:06;7.30;69.50
51029;DHT22;37054;52.054;8.600;2023-12-07T06:10:32;7.40;69.50
51029;DHT22;37054;52.054;8.600;2023-12-07T06:12:58;7.40;69.50
51029;DHT22;37054;52.054;8.600;2023-12-07T06:15:26;7.40;69.30
51029;DHT22;37054;52.054;8.600;2023-12-07T06:17:51;7.30;69.40
51029;DHT22;37054;52.054;8.600;2023-12-07T06:20:17;7.30;69.30
51029;DHT22;37054;52.054;8.600;2023-12-07T06:22:42;7.40;69.30
51029;DHT22;37054;52.054;8.600;2023-12-07T06:25:08;7.30;69.40
51029;DHT22;37054;52.054;8.600;2023-12-07T06:27:35;7.40;69.60
51029;DHT22;37054;52.054;8.600;2023-12-07T06:30:01;7.40;69.50
51029;DHT22;37054;52.054;8.600;2023-12-07T06:32:27;7.40;69.50
51029;DHT22;37054;52.054;8.600;2023-12-07T06:34:52;7.40;69.40
51029;DHT22;37054;52.054;8.600;2023-12-07T06:37:18;7.40;69.60
51029;DHT22;37054;52.054;8.600;2023-12-07T06:39:45;7.40;69.60
51029;DHT22;37054;52.054;8.600;2023-12-07T06:42:11;7.40;69.60
51029;DHT22;37054;52.054;8.600;2023-12-07T06:44:36;7.40;69.60
51029;DHT22;37054;52.054;8.600;2023-12-07T06:47:02;7.50;69.60
51029;DHT22;37054;52.054;8.600;2023-12-07T06:49:30;7.40;69.50
51029;DHT22;37054;52.054;8.600;2023-12-07T06:51:55;7.40;69.60
51029;DHT22;37054;52.054;8.600;2023-12-07T06:54:24;7.50;69.60
51029;DHT22;37054;52.054;8.600;2023-12-07T06:56:50;7.50;69.60
51029;DHT22;37054;52.054;8.600;2023-12-07T06:59:15;7.50;69.40
51029;DHT22;37054;52.054;8.600;2023-12-07T07:01:42;7.50;69.50
51029;DHT22;37054;52.054;8.600;2023-12-07T07:04:08;7.50;69.80
51029;DHT22;37054;52.054;8.600;2023-12-07T07:06:34;7.50;69.90
51029;DHT22;37054;52.054;8.600;2023-12-07T07:08:59;7.50;69.80
51029;DHT22;37054;52.054;8.600;2023-12-07T07:11:25;7.60;69.60
51029;DHT22;37054;52.054;8.600;2023-12-07T07:13:50;7.60;69.40
51029;DHT22;37054;52.054;8.600;2023-12-07T07:16:16;7.50;69.70
51029;DHT22;37054;52.054;8.600;2023-12-07T07:18:41;7.60;69.60
51029;DHT22;37054;52.054;8.600;2023-12-07T07:21:07;7.60;69.60
51029;DHT22;37054;52.054;8.600;2023-12-07T07:23:34;7.60;69.70
51029;DHT22;37054;52.054;8.600;2023-12-07T07:26:00;7.60;69.80
51029;DHT22;37054;52.054;8.600;2023-12-07T07:28:25;7.60;69.70
51029;DHT22;37054;52.054;8.600;2023-12-07T07:30:51;7.60;69.70
51029;DHT22;37054;52.054;8.600;2023-12-07T07:33:18;7.60;69.60
51029;DHT22;37054;52.054;8.600;2023-12-07T07:35:44;7.60;69.80
51029;DHT22;37054;52.054;8.600;2023-12-07T07:38:09;7.60;69.90
51029;DHT22;37054;52.054;8.600;2023-12-07T07:40:35;7.70;69.80
51029;DHT22;37054;52.054;8.600;2023-12-07T07:43:01;7.70;69.90
51029;DHT22;37054;52.054;8.600;2023-12-07T07:45:26;7.70;69.80
51029;DHT22;37054;52.054;8.600;2023-12-07T07:47:52;7.70;69.80
51029;DHT22;37054;52.054;8.600;2023-12-07T07:50:17;7.70;70.20
51029;DHT22;37054;52.054;8.600;2023-12-07T07:52:43;7.80;70.10
51029;DHT22;37054;52.054;8.600;2023-12-07T07:55:10;7.80;70.00
51029;DHT22;37054;52.054;8.600;2023-12-07T07:57:35;7.80;70.10
51029;DHT22;37054;52.054;8.600;2023-12-07T08:00:01;7.80;70.10
51029;DHT22;37054;52.054;8.600;2023-12-07T08:02:26;7.80;70.10
51029;DHT22;37054;52.054;8.600;2023-12-07T08:04:52;7.80;70.30
51029;DHT22;37054;52.054;8.600;2023-12-07T08:07:18;7.90;70.20
51029;DHT22;37054;52.054;8.600;2023-12-07T08:09:44;7.90;70.30
51029;DHT22;37054;52.054;8.600;2023-12-07T08:12:09;7.90;70.10
51029;DHT22;37054;52.054;8.600;2023-12-07T08:14:35;8.00;70.20
51029;DHT22;37054;52.054;8.600;2023-12-07T08:17:01;8.00;70.10
51029;DHT22;37054;52.054;8.600;2023-12-07T08:19:27;8.10;70.30
51029;DHT22;37054;52.054;8.600;2023-12-07T08:21:52;8.10;70.10
51029;DHT22;37054;52.054;8.600;2023-12-07T08:24:18;8.10;70.10
51029;DHT22;37054;52.054;8.600;2023-12-07T08:26:43;8.10;70.30
51029;DHT22;37054;52.054;8.600;2023-12-07T08:29:09;8.20;70.10
51029;DHT22;37054;52.054;8.600;2023-12-07T08:31:34;8.20;70.00
51029;DHT22;37054;52.054;8.600;2023-12-07T08:34:00;8.20;70.10
51029;DHT22;37054;52.054;8.600;2023-12-07T08:36:26;8.20;70.00
51029;DHT22;37054;52.054;8.600;2023-12-07T08:38:51;8.20;69.90
51029;DHT22;37054;52.054;8.600;2023-12-07T08:41:18;8.20;70.30
51029;DHT22;37054;52.054;8.600;2023-12-07T08:43:43;8.20;70.30
51029;DHT22;37054;52.054;8.600;2023-12-07T08:46:09;8.30;70.50
51029;DHT22;37054;52.054;8.600;2023-12-07T08:48:36;8.30;70.30
51029;DHT22;37054;52.054;8.600;2023-12-07T08:51:02;8.40;70.50
51029;DHT22;37054;52.054;8.600;2023-12-07T08:53:28;8.40;70.00
51029;DHT22;37054;52.054;8.600;2023-12-07T08:55:54;8.40;70.00
51029;DHT22;37054;52.054;8.600;2023-12-07T08:58:20;8.40;69.90
51029;DHT22;37054;52.054;8.600;2023-12-07T09:00:46;8.50;69.90
51029;DHT22;37054;52.054;8.600;2023-12-07T09:03:11;8.40;70.00
51029;DHT22;37054;52.054;8.600;2023-12-07T09:05:37;8.50;70.10
51029;DHT22;37054;52.054;8.600;2023-12-07T09:08:03;8.50;69.80
51029;DHT22;37054;52.054;8.600;2023-12-07T09:10:28;8.50;70.20
51029;DHT22;37054;52.054;8.600;2023-12-07T09:12:54;8.50;70.50
51029;DHT22;37054;52.054;8.600;2023-12-07T09:15:19;8.60;70.80
51029;DHT22;37054;52.054;8.600;2023-12-07T09:17:46;8.70;70.60
51029;DHT22;37054;52.054;8.600;2023-12-07T09:20:14;8.70;70.60
51029;DHT22;37054;52.054;8.600;2023-12-07T09:22:44;8.70;70.80
51029;DHT22;37054;52.054;8.600;2023-12-07T09:25:11;8.80;70.50
51029;DHT22;37054;52.054;8.600;2023-12-07T09:27:38;8.80;70.40
51029;DHT22;37054;52.054;8.600;2023-12-07T09:30:06;8.90;70.80
51029;DHT22;37054;52.054;8.600;2023-12-07T09:32:32;8.90;70.60
51029;DHT22;37054;52.054;8.600;2023-12-07T09:34:57;8.90;70.10
51029;DHT22;37054;52.054;8.600;2023-12-07T09:37:23;8.90;69.90
51029;DHT22;37054;52.054;8.600;2023-12-07T09:39:48;8.90;70.20
51029;DHT22;37054;52.054;8.600;2023-12-07T09:42:14;8.90;70.00
51029;DHT22;37054;52.054;8.600;2023-12-07T09:44:40;8.90;69.60
51029;DHT22;37054;52.054;8.600;2023-12-07T09:47:06;8.90;70.10
51029;DHT22;37054;52.054;8.600;2023-12-07T09:49:31;9.00;70.30
51029;DHT22;37054;52.054;8.600;2023-12-07T09:51:58;9.00;70.00
51029;DHT22;37054;52.054;8.600;2023-12-07T09:54:25;9.00;70.10
51029;DHT22;37054;52.054;8.600;2023-12-07T09:56:51;9.10;69.80
51029;DHT22;37054;52.054;8.600;2023-12-07T09:59:20;9.00;69.90
51029;DHT22;37054;52.054;8.600;2023-12-07T10:01:45;9.10;70.20
51029;DHT22;37054;52.054;8.600;2023-12-07T10:04:21;9.20;70.60
51029;DHT22;37054;52.054;8.600;2023-12-07T10:06:49;9.30;70.90
51029;DHT22;37054;52.054;8.600;2023-12-07T10:09:15;9.30;71.20
51029;DHT22;37054;52.054;8.600;2023-12-07T10:11:40;9.40;71.50
51029;DHT22;37054;52.054;8.600;2023-12-07T10:14:09;9.60;71.50
51029;DHT22;37054;52.054;8.600;2023-12-07T10:16:34;9.70;70.80
51029;DHT22;37054;52.054;8.600;2023-12-07T10:19:18;9.70;70.60
51029;DHT22;37054;52.054;8.600;2023-12-07T10:21:49;9.80;71.00
51029;DHT22;37054;52.054;8.600;2023-12-07T10:24:20;9.80;71.00
51029;DHT22;37054;52.054;8.600;2023-12-07T10:26:46;9.90;70.80
51029;DHT22;37054;52.054;8.600;2023-12-07T10:29:12;10.00;70.80
51029;DHT22;37054;52.054;8.600;2023-12-07T10:31:38;10.00;70.50
51029;DHT22;37054;52.054;8.600;2023-12-07T10:34:05;10.10;70.80
51029;DHT22;37054;52.054;8.600;2023-12-07T10:36:30;10.20;70.70
51029;DHT22;37054;52.054;8.600;2023-12-07T10:38:56;10.30;71.20
51029;DHT22;37054;52.054;8.600;2023-12-07T10:41:25;10.50;71.10
51029;DHT22;37054;52.054;8.600;2023-12-07T10:44:00;10.60;70.60
51029;DHT22;37054;52.054;8.600;2023-12-07T10:46:26;10.60;70.90
51029;DHT22;37054;52.054;8.600;2023-12-07T10:49:00;10.70;71.40
51029;DHT22;37054;52.054;8.600;2023-12-07T10:54:14;11.10;71.30
51029;DHT22;37054;52.054;8.600;2023-12-07T10:56:45;11.20;71.40
51029;DHT22;37054;52.054;8.600;2023-12-07T10:59:11;11.40;71.40
51029;DHT22;37054;52.054;8.600;2023-12-07T11:01:41;11.60;71.20
51029;DHT22;37054;52.054;8.600;2023-12-07T11:04:11;11.80;72.10
51029;DHT22;37054;52.054;8.600;2023-12-07T11:06:37;12.30;71.90
51029;DHT22;37054;52.054;8.600;2023-12-07T11:09:08;12.60;72.10
51029;DHT22;37054;52.054;8.600;2023-12-07T11:14:05;13.30;71.90
51029;DHT22;37054;52.054;8.600;2023-12-07T11:16:35;13.80;72.70
51029;DHT22;37054;52.054;8.600;2023-12-07T11:19:02;14.20;72.20
51029;DHT22;37054;52.054;8.600;2023-12-07T11:21:28;14.40;70.70
51029;DHT22;37054;52.054;8.600;2023-12-07T11:23:54;14.60;70.00
51029;DHT22;37054;52.054;8.600;2023-12-07T11:26:23;14.70;69.60
51029;DHT22;37054;52.054;8.600;2023-12-07T11:28:49;14.70;68.30
51029;DHT22;37054;52.054;8.600;2023-12-07T11:31:16;14.60;67.70
51029;DHT22;37054;52.054;8.600;2023-12-07T11:33:42;14.60;67.70
51029;DHT22;37054;52.054;8.600;2023-12-07T11:36:09;14.50;66.90
51029;DHT22;37054;52.054;8.600;2023-12-07T11:39:16;14.40;65.90
51029;DHT22;37054;52.054;8.600;2023-12-07T11:41:44;14.20;65.60
51029;DHT22;37054;52.054;8.600;2023-12-07T11:44:11;13.90;65.80
51029;DHT22;37054;52.054;8.600;2023-12-07T11:46:40;13.80;65.30
51029;DHT22;37054;52.054;8.600;2023-12-07T11:49:06;13.60;65.80
51029;DHT22;37054;52.054;8.600;2023-12-07T11:51:36;13.30;64.60
51029;DHT22;37054;52.054;8.600;2023-12-07T11:54:01;12.90;65.10
51029;DHT22;37054;52.054;8.600;2023-12-07T11:56:27;12.60;66.10
51029;DHT22;37054;52.054;8.600;2023-12-07T11:58:52;12.50;67.00
51029;DHT22;37054;52.054;8.600;2023-12-07T12:01:18;12.30;67.50
51029;DHT22;37054;52.054;8.600;2023-12-07T12:03:43;12.10;67.50
51029;DHT22;37054;52.054;8.600;2023-12-07T12:06:09;12.00;67.60
51029;DHT22;37054;52.054;8.600;2023-12-07T12:08:38;11.80;67.30
51029;DHT22;37054;52.054;8.600;2023-12-07T12:11:04;11.70;67.00
51029;DHT22;37054;52.054;8.600;2023-12-07T12:13:33;11.50;67.50
51029;DHT22;37054;52.054;8.600;2023-12-07T12:15:59;11.40;67.40
51029;DHT22;37054;52.054;8.600;2023-12-07T12:18:25;11.40;67.70
51029;DHT22;37054;52.054;8.600;2023-12-07T12:20:52;11.30;68.40
51029;DHT22;37054;52.054;8.600;2023-12-07T12:23:18;11.30;68.10
51029;DHT22;37054;52.054;8.600;2023-12-07T12:25:44;11.20;68.40
51029;DHT22;37054;52.054;8.600;2023-12-07T12:28:10;11.10;67.30
51029;DHT22;37054;52.054;8.600;2023-12-07T12:30:37;10.90;67.20
51029;DHT22;37054;52.054;8.600;2023-12-07T12:33:02;10.80;67.40
51029;DHT22;37054;52.054;8.600;2023-12-07T12:35:28;10.70;67.10
51029;DHT22;37054;52.054;8.600;2023-12-07T12:37:54;10.50;67.00
51029;DHT22;37054;52.054;8.600;2023-12-07T12:40:26;10.40;67.40
51029;DHT22;37054;52.054;8.600;2023-12-07T12:42:52;10.40;67.80
51029;DHT22;37054;52.054;8.600;2023-12-07T12:45:19;10.40;68.00
51029;DHT22;37054;52.054;8.600;2023-12-07T12:47:46;10.30;68.20
51029;DHT22;37054;52.054;8.600;2023-12-07T12:50:13;10.30;68.20
51029;DHT22;37054;52.054;8.600;2023-12-07T12:52:58;10.30;68.10
51029;DHT22;37054;52.054;8.600;2023-12-07T12:55:26;10.30;68.40
51029;DHT22;37054;52.054;8.600;2023-12-07T12:57:51;10.20;68.50
51029;DHT22;37054;52.054;8.600;2023-12-07T13:00:17;10.20;68.60
51029;DHT22;37054;52.054;8.600;2023-12-07T13:02:43;10.30;69.00
51029;DHT22;37054;52.054;8.600;2023-12-07T13:05:08;10.30;68.70
51029;DHT22;37054;52.054;8.600;2023-12-07T13:07:34;10.20;68.00
51029;DHT22;37054;52.054;8.600;2023-12-07T13:10:01;10.10;68.20
51029;DHT22;37054;52.054;8.600;2023-12-07T13:12:26;10.10;68.20
51029;DHT22;37054;52.054;8.600;2023-12-07T13:14:53;10.10;68.40
51029;DHT22;37054;52.054;8.600;2023-12-07T13:17:19;10.00;67.90
51029;DHT22;37054;52.054;8.600;2023-12-07T13:19:44;10.00;67.90
51029;DHT22;37054;52.054;8.600;2023-12-07T13:22:10;9.90;67.60
51029;DHT22;37054;52.054;8.600;2023-12-07T13:24:35;9.80;67.20
51029;DHT22;37054;52.054;8.600;2023-12-07T13:27:01;9.70;66.80
51029;DHT22;37054;52.054;8.600;2023-12-07T13:29:27;9.50;66.80
51029;DHT22;37054;52.054;8.600;2023-12-07T13:31:53;9.40;66.70
51029;DHT22;37054;52.054;8.600;2023-12-07T13:34:18;9.40;66.80
51029;DHT22;37054;52.054;8.600;2023-12-07T13:36:44;9.30;67.00
51029;DHT22;37054;52.054;8.600;2023-12-07T13:39:09;9.20;67.00
51029;DHT22;37054;52.054;8.600;2023-12-07T13:41:38;9.00;67.00
51029;DHT22;37054;52.054;8.600;2023-12-07T13:44:04;9.00;66.90
51029;DHT22;37054;52.054;8.600;2023-12-07T13:46:30;9.00;67.00
51029;DHT22;37054;52.054;8.600;2023-12-07T13:48:56;8.80;67.00
51029;DHT22;37054;52.054;8.600;2023-12-07T13:51:22;8.80;67.10
51029;DHT22;37054;52.054;8.600;2023-12-07T13:53:48;8.70;67.10
51029;DHT22;37054;52.054;8.600;2023-12-07T13:56:14;8.70;67.20
51029;DHT22;37054;52.054;8.600;2023-12-07T13:58:39;8.60;67.30
51029;DHT22;37054;52.054;8.600;2023-12-07T14:01:05;8.60;67.30
51029;DHT22;37054;52.054;8.600;2023-12-07T14:03:32;8.50;67.20
51029;DHT22;37054;52.054;8.600;2023-12-07T14:05:57;8.50;67.20
51029;DHT22;37054;52.054;8.600;2023-12-07T14:08:23;8.40;67.40
51029;DHT22;37054;52.054;8.600;2023-12-07T14:10:48;8.40;67.40
51029;DHT22;37054;52.054;8.600;2023-12-07T14:13:14;8.30;67.20
51029;DHT22;37054;52.054;8.600;2023-12-07T14:15:39;8.30;67.20
51029;DHT22;37054;52.054;8.600;2023-12-07T14:18:06;8.20;67.20
51029;DHT22;37054;52.054;8.600;2023-12-07T14:20:31;8.20;67.10
51029;DHT22;37054;52.054;8.600;2023-12-07T14:22:58;8.10;67.10
51029;DHT22;37054;52.054;8.600;2023-12-07T14:25:29;8.00;66.90
51029;DHT22;37054;52.054;8.600;2023-12-07T14:27:55;8.00;67.00
51029;DHT22;37054;52.054;8.600;2023-12-07T14:30:20;7.90;66.80
51029;DHT22;37054;52.054;8.600;2023-12-07T14:32:47;7.80;66.90
51029;DHT22;37054;52.054;8.600;2023-12-07T14:35:17;7.80;66.90
51029;DHT22;37054;52.054;8.600;2023-12-07T14:37:43;7.70;66.80
51029;DHT22;37054;52.054;8.600;2023-12-07T14:40:09;7.60;66.70
51029;DHT22;37054;52.054;8.600;2023-12-07T14:42:35;7.50;66.60
51029;DHT22;37054;52.054;8.600;2023-12-07T14:45:00;7.50;66.50
51029;DHT22;37054;52.054;8.600;2023-12-07T14:47:27;7.40;66.50
51029;DHT22;37054;52.054;8.600;2023-12-07T14:49:53;7.30;66.20
51029;DHT22;37054;52.054;8.600;2023-12-07T14:52:18;7.20;65.90
51029;DHT22;37054;52.054;8.600;2023-12-07T14:54:43;7.10;65.70
51029;DHT22;37054;52.054;8.600;2023-12-07T14:57:09;7.00;65.70
51029;DHT22;37054;52.054;8.600;2023-12-07T14:59:35;7.00;65.70
51029;DHT22;37054;52.054;8.600;2023-12-07T15:02:01;6.80;65.60
51029;DHT22;37054;52.054;8.600;2023-12-07T15:04:26;6.80;65.60
51029;DHT22;37054;52.054;8.600;2023-12-07T15:06:52;6.70;65.60
51029;DHT22;37054;52.054;8.600;2023-12-07T15:09:19;6.70;65.60
51029;DHT22;37054;52.054;8.600;2023-12-07T15:11:45;6.60;65.50
51029;DHT22;37054;52.054;8.600;2023-12-07T15:14:11;6.50;65.60
51029;DHT22;37054;52.054;8.600;2023-12-07T15:16:36;6.40;65.70
51029;DHT22;37054;52.054;8.600;2023-12-07T15:19:02;6.40;65.60
51029;DHT22;37054;52.054;8.600;2023-12-07T15:21:28;6.30;65.40
51029;DHT22;37054;52.054;8.600;2023-12-07T15:23:54;6.20;65.40
51029;DHT22;37054;52.054;8.600;2023-12-07T15:26:19;6.20;65.40
51029;DHT22;37054;52.054;8.600;2023-12-07T15:28:45;6.10;65.40
51029;DHT22;37054;52.054;8.600;2023-12-07T15:31:11;6.10;65.70
51029;DHT22;37054;52.054;8.600;2023-12-07T15:33:36;6.00;65.80
51029;DHT22;37054;52.054;8.600;2023-12-07T15:36:03;6.00;65.80
51029;DHT22;37054;52.054;8.600;2023-12-07T15:38:29;6.00;65.90
51029;DHT22;37054;52.054;8.600;2023-12-07T15:40:56;5.90;65.90
51029;DHT22;37054;52.054;8.600;2023-12-07T15:43:25;5.90;65.80